TimeEST,TemperatureF,Dew PointF,Humidity,Sea Level PressureIn,VisibilityMPH,Wind Direction,Wind SpeedMPH,Gust SpeedMPH,PrecipitationIn,Events,Conditions,WindDirDegrees,DateUTC
12:53 AM,72.0,64.9,78,29.98,10.0,Calm,Calm,-,N/A,,Partly Cloudy,0,2012-12-08 05:53:00
1:53 AM,71.1,66.0,84,29.98,10.0,East,4.6,-,N/A,,Clear,100,2012-12-08 06:53:00
2:53 AM,72.0,66.9,84,29.97,10.0,Calm,Calm,-,N/A,,Partly Cloudy,0,2012-12-08 07:53:00
3:53 AM,69.1,66.0,90,29.97,10.0,Calm,Calm,-,N/A,,Partly Cloudy,0,2012-12-08 08:53:00
4:53 AM,68.0,66.0,93,29.98,10.0,Calm,Calm,-,N/A,,Partly Cloudy,0,2012-12-08 09:53:00
5:53 AM,68.0,66.0,93,29.99,10.0,Calm,Calm,-,N/A,,Partly Cloudy,0,2012-12-08 10:53:00
6:53 AM,70.0,68.0,93,30.01,10.0,East,6.9,-,0.02,Rain,Light Rain,80,2012-12-08 11:53:00
7:53 AM,73.0,70.0,90,30.02,10.0,Calm,Calm,-,0.00,,Scattered Clouds,0,2012-12-08 12:53:00
8:53 AM,78.1,70.0,76,30.04,10.0,East,11.5,-,N/A,,Scattered Clouds,100,2012-12-08 13:53:00
9:53 AM,80.1,70.0,71,30.04,10.0,ESE,11.5,-,0.01,,Scattered Clouds,120,2012-12-08 14:53:00
10:53 AM,82.0,69.1,65,30.03,10.0,SE,12.7,-,N/A,,Scattered Clouds,130,2012-12-08 15:53:00
11:53 AM,81.0,68.0,65,30.01,10.0,SE,10.4,-,N/A,,Scattered Clouds,130,2012-12-08 16:53:00
12:00 PM,80.6,69.8,70,30.00,10.0,SE,9.2,-,N/A,,Mostly Cloudy,130,2012-12-08 17:00:00
12:12 PM,82.4,69.8,66,30.00,10.0,ESE,11.5,18.4,N/A,,Scattered Clouds,110,2012-12-08 17:12:00
12:53 PM,80.1,69.1,69,29.99,10.0,ESE,11.5,-,N/A,,Scattered Clouds,110,2012-12-08 17:53:00
1:53 PM,80.1,69.1,69,29.98,10.0,East,11.5,-,N/A,,Mostly Cloudy,100,2012-12-08 18:53:00
2:53 PM,80.1,69.1,69,29.98,10.0,SE,11.5,-,N/A,,Scattered Clouds,130,2012-12-08 19:53:00
3:53 PM,79.0,69.1,72,29.98,10.0,ESE,9.2,-,N/A,,Scattered Clouds,120,2012-12-08 20:53:00
4:53 PM,78.1,70.0,76,29.98,10.0,East,11.5,-,N/A,,Scattered Clouds,100,2012-12-08 21:53:00
5:53 PM,77.0,70.0,79,30.00,10.0,ESE,8.1,-,N/A,,Partly Cloudy,120,2012-12-08 22:53:00
6:53 PM,77.0,71.1,82,30.01,10.0,ESE,8.1,-,N/A,,Partly Cloudy,120,2012-12-08 23:53:00
7:26 PM,77.0,71.6,83,30.01,10.0,East,9.2,-,N/A,,Mostly Cloudy,100,2012-12-09 00:26:00
7:37 PM,77.0,71.6,83,30.02,10.0,ESE,8.1,-,N/A,,Scattered Clouds,110,2012-12-09 00:37:00
7:53 PM,77.0,71.1,82,30.03,10.0,East,8.1,-,N/A,,Scattered Clouds,100,2012-12-09 00:53:00
8:53 PM,78.1,71.1,79,30.04,10.0,East,9.2,-,0.00,Rain,Light Rain,90,2012-12-09 01:53:00
9:53 PM,77.0,72.0,84,30.04,10.0,ESE,11.5,-,0.00,,Scattered Clouds,120,2012-12-09 02:53:00
10:53 PM,77.0,72.0,84,30.04,10.0,SE,8.1,-,N/A,,Scattered Clouds,130,2012-12-09 03:53:00
11:53 PM,75.9,71.1,85,30.04,10.0,SE,8.1,-,N/A,,Scattered Clouds,140,2012-12-09 04:53:00